sensor_id;sensor_type;location;lat;lon;timestamp;temperature;humidity
46139;DHT22;32398;49.112;8.598;2024-01-25T00:00:16;10.10;99.90
46139;DHT22;32398;49.112;8.598;2024-01-25T00:02:42;10.10;99.90
46139;DHT22;32398;49.112;8.598;2024-01-25T00:05:09;10.10;99.90
46139;DHT22;32398;49.112;8.598;2024-01-25T00:07:37;10.10;99.90
46139;DHT22;32398;49.112;8.598;2024-01-25T00:10:10;10.10;99.90
46139;DHT22;32398;49.112;8.598;2024-01-25T00:12:37;10.10;99.90
46139;DHT22;32398;49.112;8.598;2024-01-25T00:15:04;10.10;99.90
46139;DHT22;32398;49.112;8.598;2024-01-25T00:17:30;10.10;99.90
46139;DHT22;32398;49.112;8.598;2024-01-25T00:19:57;10.10;99.90
46139;DHT22;32398;49.112;8.598;2024-01-25T00:22:23;10.00;99.90
46139;DHT22;32398;49.112;8.598;2024-01-25T00:24:51;10.10;99.90
46139;DHT22;32398;49.112;8.598;2024-01-25T00:27:18;10.10;99.90
46139;DHT22;32398;49.112;8.598;2024-01-25T00:29:44;10.10;99.90
46139;DHT22;32398;49.112;8.598;2024-01-25T00:32:11;10.10;99.90
46139;DHT22;32398;49.112;8.598;2024-01-25T00:34:38;10.00;99.90
46139;DHT22;32398;49.112;8.598;2024-01-25T00:37:04;10.00;99.90
46139;DHT22;32398;49.112;8.598;2024-01-25T00:39:31;10.00;99.90
46139;DHT22;32398;49.112;8.598;2024-01-25T00:42:01;10.00;99.90
46139;DHT22;32398;49.112;8.598;2024-01-25T00:44:29;10.00;99.90
46139;DHT22;32398;49.112;8.598;2024-01-25T00:46:56;10.00;99.90
46139;DHT22;32398;49.112;8.598;2024-01-25T00:49:23;10.10;99.90
46139;DHT22;32398;49.112;8.598;2024-01-25T00:51:50;10.00;99.90
46139;DHT22;32398;49.112;8.598;2024-01-25T00:54:17;10.00;99.90
46139;DHT22;32398;49.112;8.598;2024-01-25T00:56:43;10.00;99.90
46139;DHT22;32398;49.112;8.598;2024-01-25T00:59:11;10.00;99.90
46139;DHT22;32398;49.112;8.598;2024-01-25T01:01:38;10.00;99.90
46139;DHT22;32398;49.112;8.598;2024-01-25T01:04:05;10.00;99.90
46139;DHT22;32398;49.112;8.598;2024-01-25T01:06:32;10.00;99.90
46139;DHT22;32398;49.112;8.598;2024-01-25T01:08:59;10.00;99.90
46139;DHT22;32398;49.112;8.598;2024-01-25T01:11:25;10.00;99.90
46139;DHT22;32398;49.112;8.598;2024-01-25T01:13:52;10.00;99.90
46139;DHT22;32398;49.112;8.598;2024-01-25T01:16:20;10.00;99.90
46139;DHT22;32398;49.112;8.598;2024-01-25T01:18:46;10.00;99.90
46139;DHT22;32398;49.112;8.598;2024-01-25T01:21:13;10.00;99.90
46139;DHT22;32398;49.112;8.598;2024-01-25T01:23:39;10.00;99.90
46139;DHT22;32398;49.112;8.598;2024-01-25T01:26:06;9.90;99.90
46139;DHT22;32398;49.112;8.598;2024-01-25T01:28:33;10.00;99.90
46139;DHT22;32398;49.112;8.598;2024-01-25T01:31:00;10.00;99.90
46139;DHT22;32398;49.112;8.598;2024-01-25T01:33:27;10.00;99.90
46139;DHT22;32398;49.112;8.598;2024-01-25T01:35:54;9.90;99.90
46139;DHT22;32398;49.112;8.598;2024-01-25T01:38:20;9.90;99.90
46139;DHT22;32398;49.112;8.598;2024-01-25T01:40:47;10.00;99.90
46139;DHT22;32398;49.112;8.598;2024-01-25T01:43:17;9.90;99.90
46139;DHT22;32398;49.112;8.598;2024-01-25T01:45:44;9.90;99.90
46139;DHT22;32398;49.112;8.598;2024-01-25T01:48:10;9.90;99.90
46139;DHT22;32398;49.112;8.598;2024-01-25T01:50:38;9.90;99.90
46139;DHT22;32398;49.112;8.598;2024-01-25T01:53:05;9.90;99.90
46139;DHT22;32398;49.112;8.598;2024-01-25T01:55:31;9.90;99.90
46139;DHT22;32398;49.112;8.598;2024-01-25T01:57:58;9.90;99.90
46139;DHT22;32398;49.112;8.598;2024-01-25T02:00:25;9.90;99.90
46139;DHT22;32398;49.112;8.598;2024-01-25T02:02:51;9.90;99.90
46139;DHT22;32398;49.112;8.598;2024-01-25T02:05:18;9.90;99.90
46139;DHT22;32398;49.112;8.598;2024-01-25T02:07:46;9.80;99.90
46139;DHT22;32398;49.112;8.598;2024-01-25T02:10:12;9.90;99.90
46139;DHT22;32398;49.112;8.598;2024-01-25T02:12:39;9.90;99.90
46139;DHT22;32398;49.112;8.598;2024-01-25T02:15:06;9.90;99.90
46139;DHT22;32398;49.112;8.598;2024-01-25T02:17:32;9.90;99.90
46139;DHT22;32398;49.112;8.598;2024-01-25T02:19:59;9.80;99.90
46139;DHT22;32398;49.112;8.598;2024-01-25T02:22:27;9.80;99.90
46139;DHT22;32398;49.112;8.598;2024-01-25T02:24:53;9.80;99.90
46139;DHT22;32398;49.112;8.598;2024-01-25T02:27:20;9.80;99.90
46139;DHT22;32398;49.112;8.598;2024-01-25T02:29:46;9.80;99.90
46139;DHT22;32398;49.112;8.598;2024-01-25T02:32:13;9.80;99.90
46139;DHT22;32398;49.112;8.598;2024-01-25T02:34:39;9.80;99.90
46139;DHT22;32398;49.112;8.598;2024-01-25T02:37:06;9.80;99.90
46139;DHT22;32398;49.112;8.598;2024-01-25T02:39:34;9.80;99.90
46139;DHT22;32398;49.112;8.598;2024-01-25T02:42:00;9.80;99.90
46139;DHT22;32398;49.112;8.598;2024-01-25T02:44:27;9.80;99.90
46139;DHT22;32398;49.112;8.598;2024-01-25T02:46:53;9.80;99.90
46139;DHT22;32398;49.112;8.598;2024-01-25T02:49:20;9.80;99.90
46139;DHT22;32398;49.112;8.598;2024-01-25T02:51:48;9.80;99.90
46139;DHT22;32398;49.112;8.598;2024-01-25T02:54:15;9.80;99.90
46139;DHT22;32398;49.112;8.598;2024-01-25T02:56:43;9.80;99.90
46139;DHT22;32398;49.112;8.598;2024-01-25T02:59:09;9.80;99.90
46139;DHT22;32398;49.112;8.598;2024-01-25T03:01:39;9.80;99.90
46139;DHT22;32398;49.112;8.598;2024-01-25T03:04:06;9.70;99.90
46139;DHT22;32398;49.112;8.598;2024-01-25T03:06:33;9.80;99.90
46139;DHT22;32398;49.112;8.598;2024-01-25T03:08:59;9.80;99.90
46139;DHT22;32398;49.112;8.598;2024-01-25T03:11:26;9.70;99.90
46139;DHT22;32398;49.112;8.598;2024-01-25T03:13:54;9.70;99.90
46139;DHT22;32398;49.112;8.598;2024-01-25T03:16:20;9.70;99.90
46139;DHT22;32398;49.112;8.598;2024-01-25T03:18:47;9.70;99.90
46139;DHT22;32398;49.112;8.598;2024-01-25T03:21:13;9.80;99.90
46139;DHT22;32398;49.112;8.598;2024-01-25T03:23:40;9.70;99.90
46139;DHT22;32398;49.112;8.598;2024-01-25T03:26:07;9.80;99.90
46139;DHT22;32398;49.112;8.598;2024-01-25T03:28:34;9.70;99.90
46139;DHT22;32398;49.112;8.598;2024-01-25T03:31:02;9.70;99.90
46139;DHT22;32398;49.112;8.598;2024-01-25T03:33:28;9.70;99.90
46139;DHT22;32398;49.112;8.598;2024-01-25T03:35:57;9.70;99.90
46139;DHT22;32398;49.112;8.598;2024-01-25T03:38:24;9.70;99.90
46139;DHT22;32398;49.112;8.598;2024-01-25T03:40:51;9.70;99.90
46139;DHT22;32398;49.112;8.598;2024-01-25T03:43:17;9.70;99.90
46139;DHT22;32398;49.112;8.598;2024-01-25T03:45:44;9.70;99.90
46139;DHT22;32398;49.112;8.598;2024-01-25T03:48:12;9.60;99.90
46139;DHT22;32398;49.112;8.598;2024-01-25T03:50:39;9.70;99.90
46139;DHT22;32398;49.112;8.598;2024-01-25T03:53:05;9.60;99.90
46139;DHT22;32398;49.112;8.598;2024-01-25T03:55:32;9.60;99.90
46139;DHT22;32398;49.112;8.598;2024-01-25T03:57:59;9.60;99.90
46139;DHT22;32398;49.112;8.598;2024-01-25T04:00:25;9.60;99.90
46139;DHT22;32398;49.112;8.598;2024-01-25T04:02:52;9.70;99.90
46139;DHT22;32398;49.112;8.598;2024-01-25T04:05:19;9.60;99.90
46139;DHT22;32398;49.112;8.598;2024-01-25T04:07:46;9.60;99.90
46139;DHT22;32398;49.112;8.598;2024-01-25T04:10:12;9.60;99.90
46139;DHT22;32398;49.112;8.598;2024-01-25T04:12:39;9.60;99.90
46139;DHT22;32398;49.112;8.598;2024-01-25T04:15:06;9.60;99.90
46139;DHT22;32398;49.112;8.598;2024-01-25T04:17:32;9.60;99.90
46139;DHT22;32398;49.112;8.598;2024-01-25T04:19:59;9.60;99.90
46139;DHT22;32398;49.112;8.598;2024-01-25T04:22:27;9.60;99.90
46139;DHT22;32398;49.112;8.598;2024-01-25T04:24:53;9.60;99.90
46139;DHT22;32398;49.112;8.598;2024-01-25T04:27:20;9.60;99.90
46139;DHT22;32398;49.112;8.598;2024-01-25T04:29:47;9.60;99.90
46139;DHT22;32398;49.112;8.598;2024-01-25T04:32:13;9.50;99.90
46139;DHT22;32398;49.112;8.598;2024-01-25T04:34:40;9.60;99.90
46139;DHT22;32398;49.112;8.598;2024-01-25T04:37:06;9.60;99.90
46139;DHT22;32398;49.112;8.598;2024-01-25T04:39:34;9.50;99.90
46139;DHT22;32398;49.112;8.598;2024-01-25T04:42:00;9.50;99.90
46139;DHT22;32398;49.112;8.598;2024-01-25T04:44:27;9.50;99.90
46139;DHT22;32398;49.112;8.598;2024-01-25T04:46:53;9.50;99.90
46139;DHT22;32398;49.112;8.598;2024-01-25T04:49:20;9.50;99.90
46139;DHT22;32398;49.112;8.598;2024-01-25T04:51:47;9.50;99.90
46139;DHT22;32398;49.112;8.598;2024-01-25T04:54:13;9.50;99.90
46139;DHT22;32398;49.112;8.598;2024-01-25T04:56:42;9.50;99.90
46139;DHT22;32398;49.112;8.598;2024-01-25T04:59:08;9.50;99.90
46139;DHT22;32398;49.112;8.598;2024-01-25T05:01:35;9.50;99.90
46139;DHT22;32398;49.112;8.598;2024-01-25T05:04:01;9.40;99.90
46139;DHT22;32398;49.112;8.598;2024-01-25T05:06:28;9.40;99.90
46139;DHT22;32398;49.112;8.598;2024-01-25T05:08:55;9.50;99.90
46139;DHT22;32398;49.112;8.598;2024-01-25T05:11:21;9.50;99.90
46139;DHT22;32398;49.112;8.598;2024-01-25T05:13:49;9.40;99.90
46139;DHT22;32398;49.112;8.598;2024-01-25T05:16:16;9.40;99.90
46139;DHT22;32398;49.112;8.598;2024-01-25T05:18:42;9.40;99.90
46139;DHT22;32398;49.112;8.598;2024-01-25T05:21:09;9.40;99.90
46139;DHT22;32398;49.112;8.598;2024-01-25T05:23:35;9.40;99.90
46139;DHT22;32398;49.112;8.598;2024-01-25T05:26:02;9.30;99.90
46139;DHT22;32398;49.112;8.598;2024-01-25T05:28:28;9.40;99.90
46139;DHT22;32398;49.112;8.598;2024-01-25T05:30:56;9.30;99.90
46139;DHT22;32398;49.112;8.598;2024-01-25T05:33:23;9.30;99.90
46139;DHT22;32398;49.112;8.598;2024-01-25T05:35:50;9.30;99.90
46139;DHT22;32398;49.112;8.598;2024-01-25T05:38:16;9.30;99.90
46139;DHT22;32398;49.112;8.598;2024-01-25T05:40:43;9.30;99.90
46139;DHT22;32398;49.112;8.598;2024-01-25T05:43:09;9.20;99.90
46139;DHT22;32398;49.112;8.598;2024-01-25T05:45:36;9.20;99.90
46139;DHT22;32398;49.112;8.598;2024-01-25T05:48:04;9.20;99.90
46139;DHT22;32398;49.112;8.598;2024-01-25T05:50:31;9.20;99.90
46139;DHT22;32398;49.112;8.598;2024-01-25T05:52:58;9.20;99.90
46139;DHT22;32398;49.112;8.598;2024-01-25T05:55:25;9.20;99.90
46139;DHT22;32398;49.112;8.598;2024-01-25T05:57:51;9.10;99.90
46139;DHT22;32398;49.112;8.598;2024-01-25T06:00:18;9.20;99.90
46139;DHT22;32398;49.112;8.598;2024-01-25T06:02:44;9.10;99.90
46139;DHT22;32398;49.112;8.598;2024-01-25T06:05:12;9.10;99.90
46139;DHT22;32398;49.112;8.598;2024-01-25T06:07:39;9.10;99.90
46139;DHT22;32398;49.112;8.598;2024-01-25T06:10:06;9.10;99.90
46139;DHT22;32398;49.112;8.598;2024-01-25T06:12:33;9.10;99.90
46139;DHT22;32398;49.112;8.598;2024-01-25T06:15:00;9.10;99.90
46139;DHT22;32398;49.112;8.598;2024-01-25T06:17:27;9.00;99.90
46139;DHT22;32398;49.112;8.598;2024-01-25T06:19:53;8.90;99.90
46139;DHT22;32398;49.112;8.598;2024-01-25T06:22:21;8.90;99.90
46139;DHT22;32398;49.112;8.598;2024-01-25T06:24:48;8.80;99.90
46139;DHT22;32398;49.112;8.598;2024-01-25T06:27:15;8.80;99.90
46139;DHT22;32398;49.112;8.598;2024-01-25T06:29:41;8.80;99.90
46139;DHT22;32398;49.112;8.598;2024-01-25T06:32:08;8.70;99.90
46139;DHT22;32398;49.112;8.598;2024-01-25T06:34:36;8.80;99.90
46139;DHT22;32398;49.112;8.598;2024-01-25T06:37:02;8.70;99.90
46139;DHT22;32398;49.112;8.598;2024-01-25T06:39:30;8.70;99.90
46139;DHT22;32398;49.112;8.598;2024-01-25T06:41:57;8.70;99.90
46139;DHT22;32398;49.112;8.598;2024-01-25T06:44:24;8.70;99.90
46139;DHT22;32398;49.112;8.598;2024-01-25T06:46:50;8.60;99.90
46139;DHT22;32398;49.112;8.598;2024-01-25T06:49:17;8.70;99.90
46139;DHT22;32398;49.112;8.598;2024-01-25T06:51:43;8.70;99.90
46139;DHT22;32398;49.112;8.598;2024-01-25T06:54:10;8.60;99.90
46139;DHT22;32398;49.112;8.598;2024-01-25T06:56:38;8.60;99.90
46139;DHT22;32398;49.112;8.598;2024-01-25T06:59:04;8.60;99.90
46139;DHT22;32398;49.112;8.598;2024-01-25T07:01:31;8.50;99.90
46139;DHT22;32398;49.112;8.598;2024-01-25T07:03:58;8.60;99.90
46139;DHT22;32398;49.112;8.598;2024-01-25T07:06:24;8.50;99.90
46139;DHT22;32398;49.112;8.598;2024-01-25T07:08:51;8.60;99.90
46139;DHT22;32398;49.112;8.598;2024-01-25T07:11:18;8.60;99.90
46139;DHT22;32398;49.112;8.598;2024-01-25T07:13:46;8.50;99.90
46139;DHT22;32398;49.112;8.598;2024-01-25T07:16:13;8.50;99.90
46139;DHT22;32398;49.112;8.598;2024-01-25T07:18:39;8.50;99.90
46139;DHT22;32398;49.112;8.598;2024-01-25T07:21:06;8.50;99.90
46139;DHT22;32398;49.112;8.598;2024-01-25T07:23:33;8.40;99.90
46139;DHT22;32398;49.112;8.598;2024-01-25T07:25:59;8.40;99.90
46139;DHT22;32398;49.112;8.598;2024-01-25T07:28:26;8.40;99.90
46139;DHT22;32398;49.112;8.598;2024-01-25T07:30:53;8.40;99.90
46139;DHT22;32398;49.112;8.598;2024-01-25T07:33:19;8.30;99.90
46139;DHT22;32398;49.112;8.598;2024-01-25T07:35:46;8.40;99.90
46139;DHT22;32398;49.112;8.598;2024-01-25T07:38:13;8.30;99.90
46139;DHT22;32398;49.112;8.598;2024-01-25T07:40:40;8.30;99.90
46139;DHT22;32398;49.112;8.598;2024-01-25T07:43:07;8.30;99.90
46139;DHT22;32398;49.112;8.598;2024-01-25T07:45:33;8.30;99.90
46139;DHT22;32398;49.112;8.598;2024-01-25T07:48:01;8.20;99.90
46139;DHT22;32398;49.112;8.598;2024-01-25T07:50:28;8.20;99.90
46139;DHT22;32398;49.112;8.598;2024-01-25T07:52:55;8.20;99.90
46139;DHT22;32398;49.112;8.598;2024-01-25T07:55:21;8.20;99.90
46139;DHT22;32398;49.112;8.598;2024-01-25T07:57:48;8.20;99.90
46139;DHT22;32398;49.112;8.598;2024-01-25T08:00:15;8.20;99.90
46139;DHT22;32398;49.112;8.598;2024-01-25T08:02:42;8.20;99.90
46139;DHT22;32398;49.112;8.598;2024-01-25T08:05:11;8.10;99.90
46139;DHT22;32398;49.112;8.598;2024-01-25T08:07:38;8.20;99.90
46139;DHT22;32398;49.112;8.598;2024-01-25T08:10:05;8.20;99.90
46139;DHT22;32398;49.112;8.598;2024-01-25T08:12:31;8.20;99.90
46139;DHT22;32398;49.112;8.598;2024-01-25T08:14:58;8.20;99.90
46139;DHT22;32398;49.112;8.598;2024-01-25T08:17:25;8.30;99.90
46139;DHT22;32398;49.112;8.598;2024-01-25T08:19:51;8.40;99.90
46139;DHT22;32398;49.112;8.598;2024-01-25T08:22:19;8.40;99.90
46139;DHT22;32398;49.112;8.598;2024-01-25T08:24:46;8.40;99.90
46139;DHT22;32398;49.112;8.598;2024-01-25T08:27:12;8.50;99.90
46139;DHT22;32398;49.112;8.598;2024-01-25T08:29:39;8.50;99.90
46139;DHT22;32398;49.112;8.598;2024-01-25T08:32:06;8.50;99.90
46139;DHT22;32398;49.112;8.598;2024-01-25T08:34:33;8.50;99.90
46139;DHT22;32398;49.112;8.598;2024-01-25T08:37:00;8.60;99.90
46139;DHT22;32398;49.112;8.598;2024-01-25T08:39:27;8.50;99.90
46139;DHT22;32398;49.112;8.598;2024-01-25T08:41:54;8.60;99.90
46139;DHT22;32398;49.112;8.598;2024-01-25T08:44:22;8.60;99.90
46139;DHT22;32398;49.112;8.598;2024-01-25T08:46:49;8.60;99.90
46139;DHT22;32398;49.112;8.598;2024-01-25T08:49:15;8.60;99.90
46139;DHT22;32398;49.112;8.598;2024-01-25T08:51:42;8.70;99.90
46139;DHT22;32398;49.112;8.598;2024-01-25T08:54:08;8.70;99.90
46139;DHT22;32398;49.112;8.598;2024-01-25T08:56:36;8.70;99.90
46139;DHT22;32398;49.112;8.598;2024-01-25T08:59:03;8.70;99.90
46139;DHT22;32398;49.112;8.598;2024-01-25T09:01:29;8.70;99.90
46139;DHT22;32398;49.112;8.598;2024-01-25T09:03:56;8.70;99.90
46139;DHT22;32398;49.112;8.598;2024-01-25T09:06:27;8.70;99.90
46139;DHT22;32398;49.112;8.598;2024-01-25T09:08:54;8.70;99.90
46139;DHT22;32398;49.112;8.598;2024-01-25T09:11:21;8.70;99.90
46139;DHT22;32398;49.112;8.598;2024-01-25T09:13:49;8.70;99.90
46139;DHT22;32398;49.112;8.598;2024-01-25T09:16:15;8.70;99.90
46139;DHT22;32398;49.112;8.598;2024-01-25T09:18:42;8.70;99.90
46139;DHT22;32398;49.112;8.598;2024-01-25T09:21:08;8.80;99.90
46139;DHT22;32398;49.112;8.598;2024-01-25T09:23:35;8.70;99.90
46139;DHT22;32398;49.112;8.598;2024-01-25T09:26:01;8.80;99.90
46139;DHT22;32398;49.112;8.598;2024-01-25T09:28:28;8.70;99.90
46139;DHT22;32398;49.112;8.598;2024-01-25T09:30:56;8.80;99.90
46139;DHT22;32398;49.112;8.598;2024-01-25T09:33:22;8.70;99.90
46139;DHT22;32398;49.112;8.598;2024-01-25T09:35:49;8.80;99.90
46139;DHT22;32398;49.112;8.598;2024-01-25T09:38:15;8.80;99.90
46139;DHT22;32398;49.112;8.598;2024-01-25T09:40:42;8.70;99.90
46139;DHT22;32398;49.112;8.598;2024-01-25T09:43:08;8.80;99.90
46139;DHT22;32398;49.112;8.598;2024-01-25T09:45:35;8.80;99.90
46139;DHT22;32398;49.112;8.598;2024-01-25T09:48:04;8.80;99.90
46139;DHT22;32398;49.112;8.598;2024-01-25T09:50:30;8.80;99.90
46139;DHT22;32398;49.112;8.598;2024-01-25T09:52:59;8.80;99.90
46139;DHT22;32398;49.112;8.598;2024-01-25T09:55:26;8.80;99.90
46139;DHT22;32398;49.112;8.598;2024-01-25T09:57:52;8.80;99.90
46139;DHT22;32398;49.112;8.598;2024-01-25T10:00:19;8.80;99.90
46139;DHT22;32398;49.112;8.598;2024-01-25T10:02:47;8.80;99.90
46139;DHT22;32398;49.112;8.598;2024-01-25T10:05:15;8.80;99.90
46139;DHT22;32398;49.112;8.598;2024-01-25T10:07:42;8.80;99.90
46139;DHT22;32398;49.112;8.598;2024-01-25T10:10:09;8.90;99.90
46139;DHT22;32398;49.112;8.598;2024-01-25T10:12:36;8.90;99.90
46139;DHT22;32398;49.112;8.598;2024-01-25T10:15:03;8.90;99.90
46139;DHT22;32398;49.112;8.598;2024-01-25T10:17:30;9.00;99.90
46139;DHT22;32398;49.112;8.598;2024-01-25T10:19:57;9.00;99.90
46139;DHT22;32398;49.112;8.598;2024-01-25T10:22:25;9.00;99.90
46139;DHT22;32398;49.112;8.598;2024-01-25T10:24:52;9.00;99.90
46139;DHT22;32398;49.112;8.598;2024-01-25T10:27:20;9.00;99.90
46139;DHT22;32398;49.112;8.598;2024-01-25T10:29:48;9.10;99.90
46139;DHT22;32398;49.112;8.598;2024-01-25T10:32:15;9.10;99.90
46139;DHT22;32398;49.112;8.598;2024-01-25T10:34:41;9.10;99.90
46139;DHT22;32398;49.112;8.598;2024-01-25T10:37:09;9.20;99.90
46139;DHT22;32398;49.112;8.598;2024-01-25T10:39:38;9.20;99.90
46139;DHT22;32398;49.112;8.598;2024-01-25T10:42:06;9.20;99.90
46139;DHT22;32398;49.112;8.598;2024-01-25T10:44:33;9.20;99.90
46139;DHT22;32398;49.112;8.598;2024-01-25T10:46:59;9.20;99.90
46139;DHT22;32398;49.112;8.598;2024-01-25T10:49:26;9.20;99.90
46139;DHT22;32398;49.112;8.598;2024-01-25T10:51:54;9.30;99.90
46139;DHT22;32398;49.112;8.598;2024-01-25T10:54:21;9.30;99.90
46139;DHT22;32398;49.112;8.598;2024-01-25T10:56:49;9.30;99.90
46139;DHT22;32398;49.112;8.598;2024-01-25T10:59:16;9.30;99.90
46139;DHT22;32398;49.112;8.598;2024-01-25T11:01:43;9.40;99.90
46139;DHT22;32398;49.112;8.598;2024-01-25T11:04:14;9.40;99.90
46139;DHT22;32398;49.112;8.598;2024-01-25T11:06:43;9.40;99.90
46139;DHT22;32398;49.112;8.598;2024-01-25T11:09:09;9.40;99.90
46139;DHT22;32398;49.112;8.598;2024-01-25T11:11:43;9.40;99.90
46139;DHT22;32398;49.112;8.598;2024-01-25T11:14:13;9.40;99.90
46139;DHT22;32398;49.112;8.598;2024-01-25T11:16:41;9.50;99.90
46139;DHT22;32398;49.112;8.598;2024-01-25T11:19:15;9.50;99.90
46139;DHT22;32398;49.112;8.598;2024-01-25T11:21:43;9.50;99.90
46139;DHT22;32398;49.112;8.598;2024-01-25T11:24:12;9.60;99.90
46139;DHT22;32398;49.112;8.598;2024-01-25T11:26:39;9.60;99.90
46139;DHT22;32398;49.112;8.598;2024-01-25T11:29:06;9.60;99.90
46139;DHT22;32398;49.112;8.598;2024-01-25T11:31:35;9.70;99.90
46139;DHT22;32398;49.112;8.598;2024-01-25T11:34:01;9.70;99.90
46139;DHT22;32398;49.112;8.598;2024-01-25T11:36:28;9.70;99.90
46139;DHT22;32398;49.112;8.598;2024-01-25T11:38:54;9.70;99.90
46139;DHT22;32398;49.112;8.598;2024-01-25T11:41:22;9.80;99.90
46139;DHT22;32398;49.112;8.598;2024-01-25T11:43:49;9.80;99.90
46139;DHT22;32398;49.112;8.598;2024-01-25T11:46:15;9.80;99.90
46139;DHT22;32398;49.112;8.598;2024-01-25T11:48:44;9.80;99.90
46139;DHT22;32398;49.112;8.598;2024-01-25T11:51:10;9.90;99.90
46139;DHT22;32398;49.112;8.598;2024-01-25T11:53:37;9.90;99.90
46139;DHT22;32398;49.112;8.598;2024-01-25T11:56:04;10.00;99.90
46139;DHT22;32398;49.112;8.598;2024-01-25T11:58:31;10.00;99.90
46139;DHT22;32398;49.112;8.598;2024-01-25T12:00:59;10.00;99.90
46139;DHT22;32398;49.112;8.598;2024-01-25T12:03:26;10.00;99.90
46139;DHT22;32398;49.112;8.598;2024-01-25T12:05:54;10.00;99.90
46139;DHT22;32398;49.112;8.598;2024-01-25T12:08:23;10.00;99.90
46139;DHT22;32398;49.112;8.598;2024-01-25T12:10:50;10.00;99.90
46139;DHT22;32398;49.112;8.598;2024-01-25T12:13:17;9.90;99.90
46139;DHT22;32398;49.112;8.598;2024-01-25T12:15:44;10.00;99.90
46139;DHT22;32398;49.112;8.598;2024-01-25T12:18:12;10.00;99.90
46139;DHT22;32398;49.112;8.598;2024-01-25T12:20:38;10.00;99.90
46139;DHT22;32398;49.112;8.598;2024-01-25T12:23:06;10.00;99.90
46139;DHT22;32398;49.112;8.598;2024-01-25T12:25:38;10.00;99.90
46139;DHT22;32398;49.112;8.598;2024-01-25T12:28:05;10.00;99.90
46139;DHT22;32398;49.112;8.598;2024-01-25T12:30:31;10.00;99.90
46139;DHT22;32398;49.112;8.598;2024-01-25T12:32:58;10.00;99.90
46139;DHT22;32398;49.112;8.598;2024-01-25T12:35:24;10.00;99.90
46139;DHT22;32398;49.112;8.598;2024-01-25T12:37:51;10.00;99.90
46139;DHT22;32398;49.112;8.598;2024-01-25T12:40:19;10.00;99.90
46139;DHT22;32398;49.112;8.598;2024-01-25T12:42:45;10.00;99.90
46139;DHT22;32398;49.112;8.598;2024-01-25T12:45:12;10.10;99.90
46139;DHT22;32398;49.112;8.598;2024-01-25T12:47:38;10.10;99.90
46139;DHT22;32398;49.112;8.598;2024-01-25T12:50:05;10.10;99.90
46139;DHT22;32398;49.112;8.598;2024-01-25T12:52:32;10.10;99.90
46139;DHT22;32398;49.112;8.598;2024-01-25T12:54:58;10.10;99.90
46139;DHT22;32398;49.112;8.598;2024-01-25T12:57:29;10.10;99.90
46139;DHT22;32398;49.112;8.598;2024-01-25T12:59:55;10.10;99.90
46139;DHT22;32398;49.112;8.598;2024-01-25T13:02:22;10.10;99.90
46139;DHT22;32398;49.112;8.598;2024-01-25T13:04:49;10.10;99.90
46139;DHT22;32398;49.112;8.598;2024-01-25T13:07:15;10.10;99.90
46139;DHT22;32398;49.112;8.598;2024-01-25T13:09:42;10.10;99.90
46139;DHT22;32398;49.112;8.598;2024-01-25T13:12:08;10.20;99.90
46139;DHT22;32398;49.112;8.598;2024-01-25T13:14:36;10.10;99.90
46139;DHT22;32398;49.112;8.598;2024-01-25T13:17:04;10.10;99.90
46139;DHT22;32398;49.112;8.598;2024-01-25T13:19:33;10.10;99.90
46139;DHT22;32398;49.112;8.598;2024-01-25T13:21:59;10.10;99.90
46139;DHT22;32398;49.112;8.598;2024-01-25T13:24:26;10.10;99.90
46139;DHT22;32398;49.112;8.598;2024-01-25T13:26:53;10.10;99.90
46139;DHT22;32398;49.112;8.598;2024-01-25T13:29:19;10.10;99.90
46139;DHT22;32398;49.112;8.598;2024-01-25T13:31:47;10.10;99.90
46139;DHT22;32398;49.112;8.598;2024-01-25T13:34:14;10.10;99.90
46139;DHT22;32398;49.112;8.598;2024-01-25T13:36:40;10.10;99.90
46139;DHT22;32398;49.112;8.598;2024-01-25T13:39:07;10.20;99.90
46139;DHT22;32398;49.112;8.598;2024-01-25T13:41:33;10.20;99.90
46139;DHT22;32398;49.112;8.598;2024-01-25T13:44:00;10.20;99.90
46139;DHT22;32398;49.112;8.598;2024-01-25T13:46:26;10.20;99.90
46139;DHT22;32398;49.112;8.598;2024-01-25T13:48:54;10.20;99.90
46139;DHT22;32398;49.112;8.598;2024-01-25T13:51:21;10.20;99.90
46139;DHT22;32398;49.112;8.598;2024-01-25T13:53:47;10.30;99.90
46139;DHT22;32398;49.112;8.598;2024-01-25T13:56:14;10.30;99.90
46139;DHT22;32398;49.112;8.598;2024-01-25T13:58:41;10.30;99.90
46139;DHT22;32398;49.112;8.598;2024-01-25T14:01:08;10.40;99.90
46139;DHT22;32398;49.112;8.598;2024-01-25T14:03:34;10.40;99.90
46139;DHT22;32398;49.112;8.598;2024-01-25T14:06:02;10.50;99.90
46139;DHT22;32398;49.112;8.598;2024-01-25T14:08:30;10.50;99.90
46139;DHT22;32398;49.112;8.598;2024-01-25T14:10:56;10.60;99.90
46139;DHT22;32398;49.112;8.598;2024-01-25T14:13:23;10.60;99.90
46139;DHT22;32398;49.112;8.598;2024-01-25T14:15:49;10.60;99.90
46139;DHT22;32398;49.112;8.598;2024-01-25T14:18:16;10.70;99.90
46139;DHT22;32398;49.112;8.598;2024-01-25T14:20:42;10.70;99.90
46139;DHT22;32398;49.112;8.598;2024-01-25T14:23:10;10.70;99.90
46139;DHT22;32398;49.112;8.598;2024-01-25T14:25:37;10.70;99.90
46139;DHT22;32398;49.112;8.598;2024-01-25T14:28:03;10.60;99.90
46139;DHT22;32398;49.112;8.598;2024-01-25T14:30:30;10.70;99.90
46139;DHT22;32398;49.112;8.598;2024-01-25T14:32:56;10.70;99.90
46139;DHT22;32398;49.112;8.598;2024-01-25T14:35:23;10.60;99.90
46139;DHT22;32398;49.112;8.598;2024-01-25T14:37:53;10.70;99.90
46139;DHT22;32398;49.112;8.598;2024-01-25T14:40:21;10.60;99.90
46139;DHT22;32398;49.112;8.598;2024-01-25T14:42:47;10.60;99.90
46139;DHT22;32398;49.112;8.598;2024-01-25T14:45:14;10.60;99.90
46139;DHT22;32398;49.112;8.598;2024-01-25T14:47:41;10.60;99.90
46139;DHT22;32398;49.112;8.598;2024-01-25T14:50:07;10.60;99.90
46139;DHT22;32398;49.112;8.598;2024-01-25T14:52:34;10.60;99.90
46139;DHT22;32398;49.112;8.598;2024-01-25T14:55:00;10.50;99.90
46139;DHT22;32398;49.112;8.598;2024-01-25T14:57:28;10.50;99.90
46139;DHT22;32398;49.112;8.598;2024-01-25T14:59:55;10.50;99.90
46139;DHT22;32398;49.112;8.598;2024-01-25T15:02:21;10.50;99.90
46139;DHT22;32398;49.112;8.598;2024-01-25T15:04:48;10.50;99.90
46139;DHT22;32398;49.112;8.598;2024-01-25T15:07:15;10.50;99.90
46139;DHT22;32398;49.112;8.598;2024-01-25T15:09:46;10.40;99.90
46139;DHT22;32398;49.112;8.598;2024-01-25T15:12:13;10.40;99.90
46139;DHT22;32398;49.112;8.598;2024-01-25T15:14:41;10.50;99.90
46139;DHT22;32398;49.112;8.598;2024-01-25T15:17:07;10.40;99.90
46139;DHT22;32398;49.112;8.598;2024-01-25T15:19:34;10.40;99.90
46139;DHT22;32398;49.112;8.598;2024-01-25T15:22:02;10.40;99.90
46139;DHT22;32398;49.112;8.598;2024-01-25T15:24:29;10.40;99.90
46139;DHT22;32398;49.112;8.598;2024-01-25T15:26:56;10.40;99.90
46139;DHT22;32398;49.112;8.598;2024-01-25T15:29:23;10.40;99.90
46139;DHT22;32398;49.112;8.598;2024-01-25T15:31:51;10.30;99.90
46139;DHT22;32398;49.112;8.598;2024-01-25T15:34:17;10.40;99.90
46139;DHT22;32398;49.112;8.598;2024-01-25T15:36:44;10.40;99.90